Time;durP1;ratioP1;P1;durP2;ratioP2;P2;SDS_P1;SDS_P2;PMS_P1;PMS_P2;Temp;Humidity;BMP_temperature;BMP_pressure;BME280_temperature;BME280_humidity;BME280_pressure;Samples;Min_cycle;Max_cycle;Signal;HPM_P1;HPM_P2
2021/12/30 00:02:17;;;;;;;61.17;21.07;;;;;;;-6.72;100.00;97112.28;5067671;28;20645;-54
2021/12/30 00:04:45;;;;;;;55.47;18.93;;;;;;;-6.78;100.00;97113.19;5067845;28;20301;-57
2021/12/30 00:07:12;;;;;;;61.27;21.03;;;;;;;-6.85;100.00;97103.91;5066475;28;20346;-54
2021/12/30 00:09:40;;;;;;;52.93;20.97;;;;;;;-6.83;100.00;97109.00;5066912;28;20310;-57
2021/12/30 00:12:08;;;;;;;67.50;22.87;;;;;;;-6.77;100.00;97111.47;5067537;28;20282;-53
2021/12/30 00:14:35;;;;;;;61.20;20.43;;;;;;;-6.76;100.00;97119.13;5067674;28;20316;-54
2021/12/30 00:17:03;;;;;;;69.33;19.10;;;;;;;-6.77;100.00;97120.00;5066810;28;20287;-54
2021/12/30 00:19:30;;;;;;;61.00;22.40;;;;;;;-6.75;100.00;97125.97;5066933;28;20351;-55
2021/12/30 00:21:59;;;;;;;60.83;23.57;;;;;;;-6.73;100.00;97131.03;5067926;28;20722;-56
2021/12/30 00:24:26;;;;;;;59.47;21.87;;;;;;;-6.72;100.00;97125.06;5066696;28;20290;-55
2021/12/30 00:26:53;;;;;;;61.80;21.17;;;;;;;-6.77;100.00;97132.81;5067873;28;20640;-51
2021/12/30 00:29:22;;;;;;;75.03;21.50;;;;;;;-6.85;100.00;97142.28;5065722;28;20294;-53
2021/12/30 00:31:48;;;;;;;56.27;20.60;;;;;;;-6.83;100.00;97145.66;5068136;28;20287;-56
2021/12/30 00:34:16;;;;;;;64.57;23.60;;;;;;;-6.81;100.00;97149.06;5067817;28;20291;-56
2021/12/30 00:36:43;;;;;;;62.13;22.83;;;;;;;-6.75;100.00;97146.44;5068059;28;20334;-53
2021/12/30 00:39:11;;;;;;;63.33;22.77;;;;;;;-6.72;100.00;97135.31;5067121;28;20722;-54
2021/12/30 00:41:38;;;;;;;71.93;22.80;;;;;;;-6.72;100.00;97131.00;5068042;28;20287;-56
2021/12/30 00:44:05;;;;;;;67.47;23.77;;;;;;;-6.81;100.00;97133.72;5069329;28;20282;-54
2021/12/30 00:46:32;;;;;;;70.63;23.57;;;;;;;-6.83;100.00;97137.97;5069073;28;20771;-54
2021/12/30 00:49:00;;;;;;;70.17;23.10;;;;;;;-6.85;100.00;97136.31;5069653;28;20319;-56
2021/12/30 00:51:27;;;;;;;69.37;24.17;;;;;;;-6.86;100.00;97137.19;5069279;28;20294;-56
2021/12/30 00:53:54;;;;;;;67.13;21.93;;;;;;;-6.91;100.00;97128.75;5069599;28;20628;-56
2021/12/30 00:56:22;;;;;;;69.17;23.93;;;;;;;-6.93;100.00;97138.13;5069357;28;20332;-57
2021/12/30 00:58:49;;;;;;;63.90;23.23;;;;;;;-6.91;100.00;97138.97;5069038;28;20293;-57
2021/12/30 01:01:16;;;;;;;68.47;25.00;;;;;;;-6.90;100.00;97136.38;5069392;28;20340;-52
2021/12/30 01:03:43;;;;;;;75.33;24.77;;;;;;;-6.90;100.00;97140.66;5069029;28;20334;-57
2021/12/30 01:06:10;;;;;;;76.83;23.23;;;;;;;-6.88;100.00;97139.75;5069288;28;20294;-54
2021/12/30 01:08:38;;;;;;;69.40;24.03;;;;;;;-6.87;100.00;97146.56;5068743;28;20298;-57
2021/12/30 01:11:08;;;;;;;77.23;24.23;;;;;;;-6.87;100.00;97151.69;5068071;28;20285;-57
2021/12/30 01:13:40;;;;;;;82.17;22.70;;;;;;;-6.88;100.00;97149.13;5068805;28;20297;-52
2021/12/30 01:16:16;;;;;;;74.95;25.20;;;;;;;-6.88;100.00;97159.38;5069161;28;20290;-52
2021/12/30 01:18:56;;;;;;;74.60;24.97;;;;;;;-6.81;100.00;97161.84;5068601;28;20055;-52
2021/12/30 01:21:26;;;;;;;74.07;24.20;;;;;;;-6.82;100.00;97165.28;5068828;28;20287;-52
2021/12/30 01:23:54;;;;;;;74.50;25.37;;;;;;;-6.83;100.00;97167.88;5068965;28;20290;-52
2021/12/30 01:26:22;;;;;;;77.07;23.77;;;;;;;-6.79;100.00;97169.50;5069280;28;21157;-54
2021/12/30 01:28:51;;;;;;;76.30;25.47;;;;;;;-6.81;100.00;97182.31;5066871;28;20294;-54
2021/12/30 01:31:19;;;;;;;76.00;25.53;;;;;;;-6.76;100.00;97183.09;5067064;28;20885;-52
2021/12/30 01:33:47;;;;;;;69.40;22.67;;;;;;;-6.79;100.00;97180.56;5068681;28;20848;-53
2021/12/30 01:36:15;;;;;;;73.83;24.07;;;;;;;-6.74;100.00;97188.22;5068912;28;20775;-55
2021/12/30 01:38:42;;;;;;;79.00;23.70;;;;;;;-6.80;100.00;97191.69;5068492;28;20896;-54
2021/12/30 01:41:11;;;;;;;65.73;24.43;;;;;;;-6.81;100.00;97196.81;5069002;28;20298;-54
2021/12/30 01:43:38;;;;;;;64.90;23.27;;;;;;;-6.80;100.00;97198.53;5068867;28;20297;-54
2021/12/30 01:46:09;;;;;;;71.10;23.17;;;;;;;-6.78;100.00;97197.66;5067477;28;20324;-52
2021/12/30 01:48:37;;;;;;;70.53;22.60;;;;;;;-6.84;100.00;97200.25;5069566;28;20294;-56
2021/12/30 01:51:07;;;;;;;75.20;24.70;;;;;;;-6.80;100.00;97196.81;5069381;28;20375;-54
2021/12/30 01:53:34;;;;;;;91.33;25.53;;;;;;;-6.84;100.00;97187.47;5067495;28;20291;-57
2021/12/30 01:56:02;;;;;;;69.97;23.03;;;;;;;-6.84;100.00;97191.72;5068595;28;20340;-54
2021/12/30 01:58:29;;;;;;;74.73;24.23;;;;;;;-6.80;100.00;97189.13;5069151;28;20279;-55
2021/12/30 02:00:57;;;;;;;69.53;22.37;;;;;;;-6.83;100.00;97190.88;5069599;28;20377;-57
2021/12/30 02:03:25;;;;;;;83.73;26.60;;;;;;;-6.76;100.00;97190.78;5068767;28;20361;-52
2021/12/30 02:05:52;;;;;;;66.43;21.07;;;;;;;-6.74;100.00;97189.06;5068318;28;20298;-53
2021/12/30 02:08:20;;;;;;;80.03;28.57;;;;;;;-6.68;100.00;97195.81;5068936;28;20303;-56
2021/12/30 02:10:49;;;;;;;75.40;23.93;;;;;;;-6.66;100.00;97188.94;5069609;28;20318;-55
2021/12/30 02:13:19;;;;;;;67.67;21.67;;;;;;;-6.64;100.00;97195.78;5067571;28;20648;-56
2021/12/30 02:15:46;;;;;;;69.10;24.23;;;;;;;-6.63;100.00;97184.66;5068576;28;20433;-56
2021/12/30 02:18:13;;;;;;;75.33;24.23;;;;;;;-6.61;100.00;97189.75;5068417;28;20311;-56
2021/12/30 02:20:45;;;;;;;68.63;25.33;;;;;;;-6.53;100.00;97188.81;5068578;28;20305;-55
2021/12/30 02:23:15;;;;;;;67.10;21.43;;;;;;;-6.38;100.00;97190.31;5068637;28;20294;-56
2021/12/30 02:25:42;;;;;;;68.27;22.40;;;;;;;-6.39;100.00;97198.84;5069153;28;20295;-56
2021/12/30 02:28:11;;;;;;;65.00;24.07;;;;;;;-6.48;100.00;97197.25;5068321;28;20311;-56
2021/12/30 02:30:39;;;;;;;67.97;23.43;;;;;;;-6.47;100.00;97198.94;5068516;28;20322;-51
2021/12/30 02:33:07;;;;;;;36.20;15.03;;;;;;;-6.40;100.00;97203.13;5069609;28;20301;-53
2021/12/30 02:35:34;;;;;;;52.03;21.20;;;;;;;-6.53;100.00;97199.03;5072142;28;20286;-51
2021/12/30 02:38:04;;;;;;;56.47;19.60;;;;;;;-6.57;100.00;97202.47;5072311;28;20297;-50
2021/12/30 02:40:38;;;;;;;59.13;21.77;;;;;;;-6.61;100.00;97200.00;5072484;28;21001;-54
2021/12/30 02:43:08;;;;;;;55.87;20.60;;;;;;;-6.62;100.00;97198.28;5072756;28;20373;-52
2021/12/30 02:45:35;;;;;;;59.57;20.80;;;;;;;-6.73;100.00;97205.25;5071478;28;20297;-54
2021/12/30 02:48:02;;;;;;;55.13;20.80;;;;;;;-6.68;100.00;97208.63;5071874;28;20497;-55
2021/12/30 02:50:29;;;;;;;55.67;21.20;;;;;;;-6.71;100.00;97208.66;5071833;28;20287;-52
2021/12/30 02:52:57;;;;;;;65.27;22.13;;;;;;;-6.80;100.00;97212.16;5071880;28;20293;-52
2021/12/30 02:55:25;;;;;;;64.63;21.50;;;;;;;-6.76;100.00;97215.53;5071334;28;20356;-53
2021/12/30 02:57:52;;;;;;;70.53;21.47;;;;;;;-6.76;100.00;97216.38;5072425;28;20290;-56
2021/12/30 03:00:19;;;;;;;61.97;20.30;;;;;;;-6.71;100.00;97213.78;5073315;28;20286;-52
2021/12/30 03:02:46;;;;;;;57.50;21.07;;;;;;;-6.73;100.00;97206.09;5073014;28;21163;-54
2021/12/30 03:05:20;;;;;;;76.20;23.47;;;;;;;-6.65;100.00;97203.47;5072355;28;20377;-56
2021/12/30 03:07:47;;;;;;;69.53;23.40;;;;;;;-6.66;100.00;97194.94;5072006;28;20295;-56
2021/12/30 03:10:18;;;;;;;66.47;21.97;;;;;;;-6.66;100.00;97194.94;5072973;28;20330;-56
2021/12/30 03:12:51;;;;;;;63.57;21.87;;;;;;;-6.69;100.00;97191.56;5072173;28;21062;-52
2021/12/30 03:15:19;;;;;;;63.67;22.73;;;;;;;-6.78;100.00;97199.34;5071207;28;20305;-55
2021/12/30 03:17:46;;;;;;;70.20;24.13;;;;;;;-6.81;100.00;97197.69;5070756;28;20295;-56
2021/12/30 03:20:13;;;;;;;68.90;22.83;;;;;;;-6.77;100.00;97193.34;5070052;28;20293;-56
2021/12/30 03:22:42;;;;;;;58.43;21.97;;;;;;;-6.78;100.00;97186.56;5070867;28;20297;-56
2021/12/30 03:25:14;;;;;;;66.63;23.23;;;;;;;-6.79;100.00;97200.22;5071438;28;20291;-55
2021/12/30 03:27:42;;;;;;;64.93;23.03;;;;;;;-6.80;100.00;97203.66;5070960;28;20337;-55
2021/12/30 03:30:14;;;;;;;62.93;22.73;;;;;;;-6.79;100.00;97206.16;5071102;28;20328;-55
2021/12/30 03:32:41;;;;;;;70.63;25.13;;;;;;;-6.77;100.00;97207.00;5070875;28;20290;-53
2021/12/30 03:35:10;;;;;;;73.53;26.43;;;;;;;-6.72;100.00;97210.34;5070170;28;20414;-54
2021/12/30 03:37:37;;;;;;;69.07;24.33;;;;;;;-6.73;100.00;97215.47;5071009;28;20755;-53
2021/12/30 03:40:07;;;;;;;72.00;22.97;;;;;;;-6.76;100.00;97224.06;5069204;28;20768;-54
2021/12/30 03:42:34;;;;;;;71.50;20.07;;;;;;;-6.80;100.00;97216.44;5066425;28;20324;-53
2021/12/30 03:45:02;;;;;;;77.47;28.03;;;;;;;-6.90;100.00;97222.53;5069910;28;20382;-50
2021/12/30 03:47:31;;;;;;;83.63;25.67;;;;;;;-6.89;100.00;97226.78;5070737;28;20310;-54
2021/12/30 03:49:58;;;;;;;82.93;26.07;;;;;;;-6.80;100.00;97224.94;5069142;28;20295;-52
2021/12/30 03:52:29;;;;;;;58.80;18.97;;;;;;;-6.85;100.00;97234.41;5070669;28;20322;-56
2021/12/30 03:54:56;;;;;;;79.93;24.30;;;;;;;-6.91;100.00;97226.78;5069070;28;20791;-55
2021/12/30 03:57:23;;;;;;;75.80;28.50;;;;;;;-6.83;100.00;97236.94;5069256;28;20290;-55
2021/12/30 03:59:50;;;;;;;79.33;23.77;;;;;;;-6.80;100.00;97224.94;5070062;28;20313;-52
2021/12/30 04:02:18;;;;;;;84.97;26.30;;;;;;;-6.83;100.00;97224.97;5070402;28;20381;-54
2021/12/30 04:04:46;;;;;;;83.33;23.53;;;;;;;-6.88;100.00;97224.19;5071448;28;20295;-53
2021/12/30 04:07:13;;;;;;;78.83;26.30;;;;;;;-6.85;100.00;97231.84;5071136;28;20294;-55
2021/12/30 04:09:40;;;;;;;83.90;28.10;;;;;;;-6.86;100.00;97240.41;5071146;28;20297;-56
2021/12/30 04:12:07;;;;;;;90.43;28.37;;;;;;;-6.90;100.00;97238.69;5070687;28;20282;-50
2021/12/30 04:14:34;;;;;;;91.07;26.03;;;;;;;-6.93;100.00;97243.88;5070821;28;20686;-56
2021/12/30 04:17:01;;;;;;;86.80;24.83;;;;;;;-6.84;100.00;97238.66;5070806;28;20291;-57
2021/12/30 04:19:28;;;;;;;103.50;31.40;;;;;;;-6.80;100.00;97240.31;5070739;28;20326;-55
2021/12/30 04:21:58;;;;;;;74.13;23.47;;;;;;;-6.68;100.00;97242.72;5061926;28;20330;-56
2021/12/30 04:24:25;;;;;;;86.70;27.23;;;;;;;-6.74;100.00;97250.47;5069522;28;20303;-53
2021/12/30 04:26:52;;;;;;;90.80;28.17;;;;;;;-6.72;100.00;97248.75;5067992;28;20294;-55
2021/12/30 04:29:20;;;;;;;95.93;30.27;;;;;;;-6.76;100.00;97251.38;5068607;28;20720;-50
2021/12/30 04:31:47;;;;;;;88.80;25.13;;;;;;;-6.72;100.00;97251.28;5068960;28;20294;-55
2021/12/30 04:34:15;;;;;;;87.77;28.57;;;;;;;-6.69;100.00;97258.94;5068234;28;20813;-57
2021/12/30 04:36:43;;;;;;;95.27;30.00;;;;;;;-6.65;100.00;97255.47;5067970;28;20970;-54
2021/12/30 04:39:11;;;;;;;65.33;25.30;;;;;;;-6.63;100.00;97264.00;5067353;28;20682;-54
2021/12/30 04:41:38;;;;;;;88.20;25.90;;;;;;;-6.53;100.00;97270.72;5068526;28;20286;-51
2021/12/30 04:44:06;;;;;;;95.53;25.43;;;;;;;-6.52;100.00;97280.09;5068777;28;20646;-57
2021/12/30 04:46:35;;;;;;;99.13;27.37;;;;;;;-6.58;100.00;97282.72;5068728;28;20348;-55
2021/12/30 04:49:04;;;;;;;92.23;24.30;;;;;;;-6.50;100.00;97280.91;5066840;28;20309;-52
2021/12/30 04:51:31;;;;;;;85.53;25.67;;;;;;;-6.49;100.00;97285.19;5070271;28;20286;-55
2021/12/30 04:53:58;;;;;;;93.63;28.17;;;;;;;-6.42;100.00;97289.34;5068339;28;20370;-59
2021/12/30 04:56:26;;;;;;;93.83;29.47;;;;;;;-6.36;100.00;97294.41;5067822;28;20651;-53
2021/12/30 04:58:53;;;;;;;85.40;25.63;;;;;;;-6.32;100.00;97295.22;5067755;28;20381;-55
2021/12/30 05:01:21;;;;;;;101.00;28.40;;;;;;;-6.32;100.00;97290.94;5067962;28;20305;-54
2021/12/30 05:03:48;;;;;;;102.57;29.70;;;;;;;-6.40;100.00;97291.88;5068494;28;20763;-54
2021/12/30 05:06:15;;;;;;;95.27;29.90;;;;;;;-6.47;100.00;97293.69;5067410;28;20295;-55
2021/12/30 05:08:42;;;;;;;96.47;31.80;;;;;;;-6.45;100.00;97299.63;5068081;28;20299;-55
2021/12/30 05:11:10;;;;;;;95.47;28.47;;;;;;;-6.31;100.00;97307.97;5067309;28;20639;-52
2021/12/30 05:13:38;;;;;;;99.00;28.67;;;;;;;-6.24;100.00;97307.91;5068692;28;20485;-55
2021/12/30 05:16:05;;;;;;;96.57;30.30;;;;;;;-6.32;100.00;97309.72;5068062;28;20286;-52
2021/12/30 05:18:33;;;;;;;106.03;30.50;;;;;;;-6.33;100.00;97316.56;5067958;28;20381;-53
2021/12/30 05:21:02;;;;;;;107.60;31.00;;;;;;;-6.35;100.00;97305.50;5068098;28;20314;-55
2021/12/30 05:23:30;;;;;;;98.07;29.53;;;;;;;-6.44;100.00;97305.59;5068524;28;20653;-52
2021/12/30 05:25:58;;;;;;;83.07;26.83;;;;;;;-6.43;100.00;97313.25;5068611;28;20381;-56
2021/12/30 05:28:25;;;;;;;110.10;33.10;;;;;;;-6.42;100.00;97314.94;5068421;28;20306;-55
2021/12/30 05:30:54;;;;;;;109.67;31.67;;;;;;;-6.43;100.00;97315.81;5068555;28;20291;-54
2021/12/30 05:33:22;;;;;;;104.43;29.80;;;;;;;-6.37;100.00;97320.03;5066453;28;20329;-55
2021/12/30 05:35:49;;;;;;;100.13;31.27;;;;;;;-6.40;100.00;97313.22;5067338;28;20290;-52
2021/12/30 05:38:17;;;;;;;95.00;28.63;;;;;;;-6.41;100.00;97314.09;5062691;28;20275;-51
2021/12/30 05:40:45;;;;;;;95.47;27.87;;;;;;;-6.47;100.00;97315.88;5067005;28;20287;-53
2021/12/30 05:43:11;;;;;;;99.43;31.77;;;;;;;-6.45;100.00;97311.59;5066086;28;20322;-54
2021/12/30 05:45:39;;;;;;;119.60;32.33;;;;;;;-6.42;100.00;97317.50;5065300;28;20302;-55
2021/12/30 05:48:08;;;;;;;108.33;32.23;;;;;;;-6.37;100.00;97322.59;5066654;28;20683;-54
2021/12/30 05:50:36;;;;;;;100.07;30.20;;;;;;;-6.36;100.00;97322.56;5069624;28;20295;-55
2021/12/30 05:53:03;;;;;;;106.73;32.23;;;;;;;-6.41;100.00;97329.47;5068144;28;20294;-55
2021/12/30 05:55:30;;;;;;;84.03;28.40;;;;;;;-6.41;100.00;97320.91;5064224;28;20287;-51
2021/12/30 05:57:59;;;;;;;95.60;29.50;;;;;;;-6.33;100.00;97325.97;5062832;28;20297;-53
2021/12/30 06:00:29;;;;;;;96.77;28.27;;;;;;;-6.45;100.00;97329.50;5066675;28;20377;-56
2021/12/30 06:02:56;;;;;;;101.03;31.17;;;;;;;-6.43;100.00;97328.63;5066000;28;20291;-56
2021/12/30 06:05:24;;;;;;;91.37;28.37;;;;;;;-6.34;100.00;97330.22;5064940;28;20318;-56
2021/12/30 06:07:51;;;;;;;98.67;31.53;;;;;;;-6.42;100.00;97326.91;5066537;28;20383;-56
2021/12/30 06:10:19;;;;;;;107.03;29.53;;;;;;;-6.42;100.00;97329.47;5072671;28;20294;-56
2021/12/30 06:12:47;;;;;;;106.40;31.43;;;;;;;-6.42;100.00;97334.59;5070216;28;20304;-56
2021/12/30 06:15:15;;;;;;;102.50;29.50;;;;;;;-6.37;100.00;97332.81;5069719;28;20282;-53
2021/12/30 06:17:42;;;;;;;117.40;30.77;;;;;;;-6.32;100.00;97331.91;5068753;28;20690;-54
2021/12/30 06:20:13;;;;;;;98.93;29.40;;;;;;;-6.32;100.00;97340.47;5071243;28;20286;-57
2021/12/30 06:22:42;;;;;;;103.40;28.93;;;;;;;-6.36;100.00;97339.63;5068151;28;20562;-55
2021/12/30 06:25:09;;;;;;;110.60;32.60;;;;;;;-6.40;100.00;97338.84;5071047;28;20682;-55
2021/12/30 06:27:36;;;;;;;119.37;31.63;;;;;;;-6.42;100.00;97345.66;5069194;28;20751;-56
2021/12/30 06:30:05;;;;;;;126.87;31.13;;;;;;;-6.39;100.00;97355.88;5071138;28;20329;-52
2021/12/30 06:32:32;;;;;;;86.80;25.90;;;;;;;-6.37;100.00;97366.97;5071227;28;20369;-54
2021/12/30 06:34:59;;;;;;;98.97;32.93;;;;;;;-6.25;100.00;97357.47;5070049;28;20291;-55
2021/12/30 06:37:26;;;;;;;108.63;31.53;;;;;;;-6.17;100.00;97361.63;5069438;28;20447;-55
2021/12/30 06:39:54;;;;;;;102.10;28.80;;;;;;;-6.11;100.00;97368.41;5066932;28;20621;-55
2021/12/30 06:42:21;;;;;;;100.30;30.53;;;;;;;-6.02;100.00;97369.13;5069584;28;20286;-57
2021/12/30 06:44:48;;;;;;;109.47;32.43;;;;;;;-5.93;100.00;97378.44;5069558;28;20299;-56
2021/12/30 06:47:15;;;;;;;125.57;36.43;;;;;;;-5.82;100.00;97379.16;5069478;28;20362;-52
2021/12/30 06:49:42;;;;;;;101.50;30.97;;;;;;;-5.72;100.00;97386.69;5069405;28;20313;-55
2021/12/30 06:52:11;;;;;;;103.93;32.33;;;;;;;-5.80;100.00;97393.63;5069939;28;20345;-50
2021/12/30 06:54:40;;;;;;;121.57;34.37;;;;;;;-5.75;100.00;97396.97;5069606;28;20287;-54
2021/12/30 06:57:12;;;;;;;98.43;30.20;;;;;;;-5.68;100.00;97393.47;5069692;28;20628;-55
2021/12/30 06:59:39;;;;;;;115.47;34.93;;;;;;;-5.60;100.00;97401.06;5070715;28;20067;-56
2021/12/30 07:02:07;;;;;;;128.87;34.73;;;;;;;-5.60;100.00;97386.53;5070309;28;20291;-56
2021/12/30 07:04:35;;;;;;;109.60;34.00;;;;;;;-5.53;100.00;97382.16;5070988;28;20329;-56
2021/12/30 07:07:02;;;;;;;135.10;36.07;;;;;;;-5.53;100.00;97382.16;5070826;28;20106;-56
2021/12/30 07:09:29;;;;;;;112.63;33.20;;;;;;;-5.60;100.00;97395.91;5070792;28;20068;-56
2021/12/30 07:11:56;;;;;;;133.53;37.87;;;;;;;-5.63;100.00;97393.44;5069774;28;20045;-56
2021/12/30 07:14:25;;;;;;;125.90;36.73;;;;;;;-5.66;100.00;97396.03;5070945;28;20127;-56
2021/12/30 07:16:52;;;;;;;125.67;36.93;;;;;;;-5.58;100.00;97399.31;5070525;28;20044;-56
2021/12/30 07:19:19;;;;;;;125.70;37.93;;;;;;;-5.54;100.00;97396.72;5069967;28;20037;-55
2021/12/30 07:21:46;;;;;;;122.17;35.90;;;;;;;-5.60;100.00;97401.06;5070804;28;20127;-54
2021/12/30 07:24:13;;;;;;;117.87;36.27;;;;;;;-5.49;100.00;97420.56;5069552;28;21824;-56
2021/12/30 07:26:40;;;;;;;121.20;38.17;;;;;;;-5.35;100.00;97413.53;5070959;28;20466;-56
2021/12/30 07:29:07;;;;;;;108.77;31.53;;;;;;;-5.27;100.00;97418.56;5069946;28;20405;-56
2021/12/30 07:31:36;;;;;;;123.40;33.23;;;;;;;-5.23;100.00;97425.38;5070455;28;20075;-58
2021/12/30 07:34:03;;;;;;;135.97;37.70;;;;;;;-5.18;100.00;97421.00;5068744;28;20489;-56
2021/12/30 07:36:30;;;;;;;120.20;34.50;;;;;;;-5.13;100.00;97411.50;5067652;28;20037;-57
2021/12/30 07:38:57;;;;;;;119.43;37.20;;;;;;;-5.08;100.00;97412.31;5068770;28;20507;-55
2021/12/30 07:41:25;;;;;;;119.23;36.70;;;;;;;-5.01;100.00;97419.88;5069157;28;20144;-57
2021/12/30 07:43:52;;;;;;;121.13;38.20;;;;;;;-4.94;100.00;97418.91;5068366;28;20058;-53
2021/12/30 07:46:19;;;;;;;128.90;34.83;;;;;;;-4.94;100.00;97421.47;5066644;28;20156;-54
2021/12/30 07:48:47;;;;;;;120.00;36.00;;;;;;;-4.77;100.00;97424.66;5070766;28;20403;-56
2021/12/30 07:51:14;;;;;;;117.10;34.83;;;;;;;-4.70;100.00;97436.53;5069013;28;20094;-56
2021/12/30 07:53:41;;;;;;;117.77;33.00;;;;;;;-4.74;100.00;97439.97;5068936;28;20532;-58
2021/12/30 07:56:09;;;;;;;118.20;34.97;;;;;;;-4.64;100.00;97445.84;5067485;28;20078;-57
2021/12/30 07:58:36;;;;;;;130.73;38.30;;;;;;;-4.59;100.00;97444.03;5068336;28;20053;-57
2021/12/30 08:01:03;;;;;;;112.30;34.93;;;;;;;-4.52;100.00;97443.06;5068687;28;20412;-58
2021/12/30 08:03:31;;;;;;;111.67;36.67;;;;;;;-4.49;100.00;97445.59;5068795;28;20883;-57
2021/12/30 08:05:59;;;;;;;118.97;35.53;;;;;;;-4.37;100.00;97441.09;5068734;28;20068;-56
2021/12/30 08:08:26;;;;;;;134.17;40.37;;;;;;;-4.32;100.00;97443.56;5066778;28;20378;-53
2021/12/30 08:10:54;;;;;;;131.60;37.70;;;;;;;-4.40;100.00;97448.00;5068579;28;20036;-56
2021/12/30 08:13:23;;;;;;;129.23;38.40;;;;;;;-4.21;100.00;97451.94;5070356;28;20052;-58
2021/12/30 08:15:51;;;;;;;124.13;35.20;;;;;;;-4.13;100.00;97443.22;5070368;28;20041;-57
2021/12/30 08:18:18;;;;;;;124.67;38.47;;;;;;;-3.95;100.00;97454.88;5067937;28;20047;-58
2021/12/30 08:20:45;;;;;;;109.53;35.00;;;;;;;-3.88;100.00;97447.03;5068608;28;20703;-58
2021/12/30 08:23:13;;;;;;;125.90;37.27;;;;;;;-3.86;100.00;97439.31;5069264;28;20056;-58
2021/12/30 08:25:41;;;;;;;106.27;36.70;;;;;;;-3.83;100.00;97445.22;5067924;28;20412;-58
2021/12/30 08:28:08;;;;;;;104.60;35.60;;;;;;;-3.93;100.00;97453.97;5068144;28;20054;-55
2021/12/30 08:30:35;;;;;;;111.33;34.97;;;;;;;-3.91;100.00;97457.38;5065844;28;20045;-54
2021/12/30 08:33:02;;;;;;;122.50;38.53;;;;;;;-3.81;100.00;97460.63;5068988;28;20076;-57
2021/12/30 08:35:29;;;;;;;114.23;37.83;;;;;;;-3.67;100.00;97454.34;5068581;28;20436;-57
2021/12/30 08:37:56;;;;;;;111.77;37.13;;;;;;;-3.65;100.00;97449.16;5069191;28;20136;-52
2021/12/30 08:40:24;;;;;;;123.23;38.17;;;;;;;-3.52;100.00;97450.63;5067584;28;20036;-56
2021/12/30 08:42:52;;;;;;;112.17;36.70;;;;;;;-3.67;99.39;97443.22;5068480;28;20101;-58
2021/12/30 08:45:19;;;;;;;135.37;44.80;;;;;;;-3.64;99.57;97440.59;5068624;28;20552;-60
2021/12/30 08:47:47;;;;;;;133.20;38.10;;;;;;;-3.52;99.33;97445.47;5069323;28;20052;-68
2021/12/30 08:50:16;;;;;;;122.93;38.67;;;;;;;-3.44;99.48;97452.16;5068692;28;20128;-64
2021/12/30 08:52:45;;;;;;;117.83;36.50;;;;;;;-3.42;98.86;97450.38;5067001;28;20060;-66
2021/12/30 08:55:14;;;;;;;134.20;39.40;;;;;;;-3.36;98.62;97441.69;5068468;28;20515;-63
2021/12/30 08:57:43;;;;;;;121.23;40.97;;;;;;;-3.36;98.67;97445.13;5068707;28;20044;-64
2021/12/30 09:00:13;;;;;;;121.77;40.23;;;;;;;-3.26;99.13;97438.91;5068462;28;20454;-64
2021/12/30 09:02:41;;;;;;;116.33;38.00;;;;;;;-3.39;98.43;97446.91;5067806;28;20102;-64
2021/12/30 09:05:09;;;;;;;127.20;42.87;;;;;;;-3.34;98.68;97445.09;5068204;28;20374;-64
2021/12/30 09:07:36;;;;;;;123.03;40.23;;;;;;;-3.17;98.96;97438.69;5068260;28;20046;-68
2021/12/30 09:10:07;;;;;;;111.73;35.30;;;;;;;-3.02;98.27;97437.53;5065295;28;20032;-67
2021/12/30 09:12:34;;;;;;;127.67;37.80;;;;;;;-3.05;97.92;97440.16;5065145;28;20036;-67
2021/12/30 09:15:05;;;;;;;126.10;38.90;;;;;;;-3.27;97.93;97441.53;5067670;28;20041;-68
2021/12/30 09:17:32;;;;;;;136.40;40.40;;;;;;;-3.42;99.00;97439.28;5068580;28;20226;-68
2021/12/30 09:20:00;;;;;;;119.03;39.50;;;;;;;-3.44;99.56;97441.00;5067562;28;20033;-69
2021/12/30 09:22:27;;;;;;;119.13;35.83;;;;;;;-3.35;99.55;97436.53;5067867;28;20073;-70
2021/12/30 09:24:54;;;;;;;121.67;37.63;;;;;;;-2.87;98.74;97434.63;5066262;28;21350;-69
2021/12/30 09:27:21;;;;;;;113.33;38.57;;;;;;;-2.56;97.73;97422.69;5068179;28;20102;-69
2021/12/30 09:29:48;;;;;;;117.03;39.03;;;;;;;-2.30;96.64;97410.00;5067665;28;20051;-65
2021/12/30 09:32:16;;;;;;;118.27;40.70;;;;;;;-1.99;95.95;97415.22;5068458;28;20059;-71
2021/12/30 09:34:44;;;;;;;119.07;40.03;;;;;;;-1.80;94.48;97401.78;5067780;28;20145;-63
2021/12/30 09:37:11;;;;;;;122.07;37.80;;;;;;;-1.69;93.66;97394.59;5061277;28;20090;-63
2021/12/30 09:39:40;;;;;;;114.37;37.27;;;;;;;-1.75;92.68;97401.63;5068489;28;20028;-63
2021/12/30 09:42:08;;;;;;;123.57;40.03;;;;;;;-1.88;92.83;97398.53;5069479;28;20041;-63
2021/12/30 09:44:35;;;;;;;125.30;39.90;;;;;;;-2.02;93.26;97399.81;5072356;28;20418;-63
2021/12/30 09:47:02;;;;;;;116.37;42.13;;;;;;;-2.14;94.06;97400.13;5070919;28;20135;-63
2021/12/30 09:49:31;;;;;;;116.73;40.50;;;;;;;-2.19;94.44;97391.66;5072371;28;20123;-64
2021/12/30 09:51:58;;;;;;;122.07;37.03;;;;;;;-2.36;94.26;97399.00;5072159;28;20499;-64
2021/12/30 09:54:25;;;;;;;134.70;40.30;;;;;;;-2.32;95.11;97406.63;5071934;28;20049;-63
2021/12/30 09:56:53;;;;;;;117.00;39.43;;;;;;;-2.07;95.28;97412.81;5070027;28;20519;-63
2021/12/30 09:59:23;;;;;;;138.50;41.77;;;;;;;-2.01;94.58;97404.94;5071207;28;20473;-63
2021/12/30 10:01:50;;;;;;;122.97;40.90;;;;;;;-2.07;94.67;97409.41;5071428;28;20086;-64
2021/12/30 10:04:17;;;;;;;119.10;40.90;;;;;;;-2.13;94.56;97407.84;5070232;28;20889;-63
2021/12/30 10:06:48;;;;;;;115.37;41.97;;;;;;;-2.04;94.74;97409.31;5070743;28;20044;-63
2021/12/30 10:09:16;;;;;;;122.27;39.23;;;;;;;-1.92;94.62;97412.41;5069913;28;20163;-63
2021/12/30 10:11:45;;;;;;;114.63;40.97;;;;;;;-1.83;94.68;97406.16;5069178;28;20053;-63
2021/12/30 10:14:13;;;;;;;98.20;35.23;;;;;;;-1.71;94.37;97409.25;5069158;28;20465;-62
2021/12/30 10:16:40;;;;;;;132.23;43.27;;;;;;;-1.80;94.00;97424.13;5070406;28;20036;-62
2021/12/30 10:19:07;;;;;;;113.50;41.20;;;;;;;-1.73;94.34;97418.78;5069746;28;20040;-65
2021/12/30 10:21:36;;;;;;;121.70;42.57;;;;;;;-1.68;94.34;97416.91;5070370;28;20116;-63
2021/12/30 10:24:07;;;;;;;123.67;43.57;;;;;;;-1.69;94.16;97420.38;5071367;28;20180;-64
2021/12/30 10:26:49;;;;;;;133.57;44.20;;;;;;;-1.74;94.38;97408.50;5071759;28;20046;-63
2021/12/30 10:29:16;;;;;;;140.30;47.03;;;;;;;-1.81;94.42;97404.41;5070210;28;20051;-63
2021/12/30 10:31:43;;;;;;;134.20;43.93;;;;;;;-1.64;94.69;97403.03;5070403;28;20493;-63
2021/12/30 10:34:12;;;;;;;126.40;43.13;;;;;;;-1.49;93.90;97394.84;5069752;28;20040;-64
2021/12/30 10:36:42;;;;;;;134.20;45.30;;;;;;;-1.45;94.05;97388.69;5071148;28;20439;-63
2021/12/30 10:39:21;;;;;;;127.30;45.27;;;;;;;-1.38;94.06;97397.97;5069570;28;20068;-63
2021/12/30 10:41:51;;;;;;;133.17;42.57;;;;;;;-1.26;94.23;97400.19;5071975;28;20148;-63
2021/12/30 10:44:19;;;;;;;128.33;42.37;;;;;;;-1.18;93.68;97385.28;5070424;28;20059;-63
2021/12/30 10:46:46;;;;;;;130.73;44.77;;;;;;;-1.24;93.35;97382.91;5070757;28;20056;-64
2021/12/30 10:49:24;;;;;;;117.73;40.67;;;;;;;-1.35;93.35;97391.84;5070075;28;20409;-64
2021/12/30 10:51:53;;;;;;;132.93;41.60;;;;;;;-1.51;93.81;97394.06;5069454;28;20052;-64
2021/12/30 10:54:25;;;;;;;116.97;39.03;;;;;;;-1.46;94.31;97392.19;5069609;28;20048;-72
2021/12/30 10:56:56;;;;;;;122.40;42.53;;;;;;;-1.34;94.85;97394.41;5070938;28;20095;-71
2021/12/30 10:59:26;;;;;;;129.00;40.97;;;;;;;-1.27;94.16;97388.16;5068996;28;20057;-70
2021/12/30 11:01:57;;;;;;;132.60;46.37;;;;;;;-1.34;94.33;97386.66;5062741;28;20114;-70
2021/12/30 11:04:34;;;;;;;129.27;42.20;;;;;;;-1.28;94.28;97373.56;5069895;28;20044;-71
2021/12/30 11:07:01;;;;;;;119.80;42.73;;;;;;;-1.30;94.25;97382.25;5065221;28;20053;-71
2021/12/30 11:09:29;;;;;;;126.03;41.63;;;;;;;-1.34;94.33;97376.31;5070725;28;20563;-70
2021/12/30 11:11:59;;;;;;;129.27;39.00;;;;;;;-1.44;94.65;97377.47;5073105;28;20086;-69